Aeroporto :
LOGIN :

Iscrizione | Disclaimer

   EN    FR    IT 

 










Sommario :    VFR   VFR Marginale   IFR   IFR Intensivo   IFR Molto Intensivo
Visibilità : 
Base nubi : 
>= 8 km
>= 3000ft
5 / 8 km
1000 / 3000 ft
1500m / 5 km
500 / 1000 ft
800 / 1500m
200 / 500 ft
< 800m
< 200 ft
Simboli :   Temporali  Nebbia  Neve Forte  Precipitazioni Forti  Vento > 20 kt
SIGMETs :   Varie  Temporali  Ghiacco  Turbolenza  Onda orograficha  Ceneri Vulcaniche






- Altitudine del aeroporto : 28 ft
- Codice IATA : SOZ


LFKS - Solenzara

ULTIMO METAR :
  • 141300Z AUTO 13009KT 100V160 9999 BKN039 23/16 Q1019

METARs OBSOLETI :
  • 141230Z AUTO 13009KT 9999 BKN040 23/15 Q1019
  • 141200Z AUTO 15010KT 120V180 9999 FEW021 BKN041 23/15 Q1019
  • 141130Z AUTO 14010KT 9999 OVC042 23/16 Q1019
  • 141100Z AUTO 14010KT 9999 FEW021 BKN044 BKN050 23/16 Q1019
  • 141030Z AUTO 15011KT 120V180 9999 FEW021 BKN043 OVC050 23/16 Q1019
  • 141000Z AUTO 14011KT 9999 FEW023 BKN045 24/15 Q1019
  • 140930Z AUTO 13012KT 9999 FEW022 SCT046 24/16 Q1019
  • 140900Z AUTO 14012KT 9999 FEW022 23/15 Q1019
  • 140830Z AUTO 14011KT 110V170 9999 FEW022 23/16 Q1019
  • 140800Z AUTO 14010KT 110V170 9999 FEW021 23/16 Q1019

TAF TAF LFKS
Valido dal 14 a 09 ore il 15 a 09 ore UTC


140800Z 1409/1509 14009KT 9999 FEW020



MetMap, La meteo Aeronautica in un colpo d'occhio ! - Copyright ORBIFLY Dicembre 2007 - Disclaimer

ORBIFLY MET'MAP TEAM :

Programmazione e sviluppo : Alexandra Zaïnal
Concezione : Baudouin d'Aumeries
Supporto tecnico e logistico : Manuel Goepfert
Aiuto : Marc-Olivier Méhu
Aiuto per la traduzione : Arnaldo La Scala




FONTI E CREDITI :

   NOAA